Lady Lauren — WDE7767 — position and weather

sailwx.info

Track history (hours):
 
Tides and Currents Weather Stations Pressure Air Temp Water Temp Dewpoint Dewpoint Depression Visibility Wind Speed Wind Dir Waves Ship Positions

Lady Lauren

Owner: Louisiana Marine Towing LLC, Lafayette, LA. More information available from US FCC via Universal Licensing System and Coast Guard Vessel Documentation Center.

Last reported at 2016-Aug-06 03:33 UTC. Time now 2016-Aug-25 07:58 UTC.
Position N 29°33' W 090°25'.
Warning: this ship's position is 19 days out of date.

Length 22 m; draft 2.1 m.

Type: Towing. MMSI: 367397380.

Date/timePositionNaut miles runAvg speedWind from/ knotsBaromVisibWave heightAir tempDewpointWater temp
2016-Aug-06 03:33N 29°33' W 090°25'1 1.4
2016-Aug-06 02:30N 29°33' W 090°27'5 4.9
2016-Aug-06 01:33N 29°34' W 090°32'10 3.5
2016-Aug-05 22:33N 29°34' W 090°44'1 0.6
2016-Aug-05 20:33N 29°33' W 090°45'4 4.1
2016-Aug-05 19:32N 29°32' W 090°50'61 3.4
2016-Aug-05 01:28N 29°51' W 091°56'4 4.8
2016-Aug-05 00:33N 29°49' W 092°01'4 4.3
2016-Aug-04 23:33N 29°48' W 092°06'1 0.6
2016-Aug-04 22:33N 29°48' W 092°06'5 4.5
2016-Aug-04 21:33N 29°47' W 092°11'2 2.0
2016-Aug-04 20:33N 29°48' W 092°13'0 0.3
2016-Aug-04 19:33N 29°48' W 092°14'4 3.6
2016-Aug-04 18:33N 29°49' W 092°17'2 1.6
2016-Aug-04 17:33N 29°50' W 092°19'5 4.9
2016-Aug-04 16:33N 29°53' W 092°24'16 5.4
2016-Aug-04 13:33N 29°57' W 092°42'12 3.7
2016-Aug-04 10:21N 29°56' W 092°56'5 4.5
2016-Aug-04 09:14N 29°56' W 093°01'3 4.8
2016-Aug-04 08:33N 29°56' W 093°05'5 4.5
2016-Aug-04 07:32N 29°57' W 093°10'4 3.6
2016-Aug-04 06:33N 29°60' W 093°13'7 3.7
2016-Aug-04 04:33N 30°05' W 093°18'1 0.6
2016-Aug-04 03:33N 30°06' W 093°18'0 0.0
2016-Aug-04 02:33N 30°06' W 093°18'0 0.0
2016-Aug-04 01:33N 30°06' W 093°18'3 2.6
2016-Aug-04 00:33N 30°08' W 093°20'4 4.5
2016-Aug-03 23:33N 30°12' W 093°17'3 2.7
2016-Aug-03 22:33N 30°14' W 093°15'0 0.0
2016-Aug-03 21:33N 30°14' W 093°15'0 0.1
2016-Aug-03 20:33N 30°14' W 093°15'0 0.0
2016-Aug-03 19:33N 30°14' W 093°15'0 0.0
2016-Aug-03 18:32N 30°14' W 093°15'0 0.0
2016-Aug-03 17:33N 30°14' W 093°15'0 0.0
2016-Aug-03 16:33N 30°14' W 093°15'0 0.0
2016-Aug-03 15:33N 30°14' W 093°15'0 0.0
2016-Aug-03 14:33N 30°14' W 093°15'0 0.0
2016-Aug-03 13:33N 30°14' W 093°15'0 0.0
2016-Aug-03 12:33N 30°14' W 093°15'0 0.0
2016-Aug-03 11:33N 30°14' W 093°15'0 0.0
2016-Aug-03 10:33N 30°14' W 093°15'0 0.0
2016-Aug-03 09:31N 30°14' W 093°15'0 0.0
2016-Aug-03 08:33N 30°14' W 093°15'0 0.0
2016-Aug-03 07:33N 30°14' W 093°15'0 0.0
2016-Aug-03 06:32N 30°14' W 093°15'0 0.0
2016-Aug-03 04:33N 30°14' W 093°15'0 0.0
2016-Aug-03 03:33N 30°14' W 093°15'0 0.1
2016-Aug-03 02:06N 30°14' W 093°15'0 0.0
2016-Aug-03 01:33N 30°14' W 093°15'0 0.0
2016-Aug-03 00:33N 30°14' W 093°15'0 0.1
2016-Aug-02 23:33N 30°14' W 093°15'0 0.1
2016-Aug-02 22:33N 30°14' W 093°15'0 0.2
2016-Aug-02 21:33N 30°14' W 093°15'0 0.0
2016-Aug-02 20:33N 30°14' W 093°15'0 0.0
2016-Aug-02 19:33N 30°14' W 093°15'0 0.0
2016-Aug-02 18:33N 30°14' W 093°15'0 0.1
2016-Aug-02 17:33N 30°14' W 093°15'0 0.2
2016-Aug-02 16:33N 30°14' W 093°15'2 1.6
2016-Aug-02 15:33N 30°12' W 093°16'4 3.8
2016-Aug-02 14:33N 30°10' W 093°19'4 3.6
2016-Aug-02 13:33N 30°06' W 093°20'2 2.2
2016-Aug-02 12:33N 30°05' W 093°18'1 0.9
2016-Aug-02 11:33N 30°05' W 093°17'0 0.1
2016-Aug-02 10:33N 30°05' W 093°17'0 0.0
2016-Aug-02 09:33N 30°05' W 093°17'0 0.0
2016-Aug-02 08:33N 30°05' W 093°17'0 0.0
2016-Aug-02 07:33N 30°05' W 093°17'0 0.0
2016-Aug-02 06:32N 30°05' W 093°17'0 0.0
2016-Aug-02 04:33N 30°05' W 093°17'0 0.0
2016-Aug-02 03:33N 30°05' W 093°17'0 0.0
2016-Aug-02 02:33N 30°05' W 093°17'0 0.1
2016-Aug-02 01:33N 30°05' W 093°17'0 0.3
2016-Aug-02 00:30N 30°05' W 093°17'2 2.4
2016-Aug-01 23:33N 30°02' W 093°16'3 3.0
2016-Aug-01 22:33N 30°00' W 093°13'4 3.5
2016-Aug-01 21:33N 29°57' W 093°11'3 3.0
2016-Aug-01 20:33N 29°56' W 093°08'2 2.5
2016-Aug-01 19:34N 29°56' W 093°05'29 3.2
2016-Aug-01 10:28N 29°54' W 092°31'3 2.5
2016-Aug-01 09:22N 29°54' W 092°28'2 2.5
2016-Aug-01 08:33N 29°53' W 092°26'2 2.4
2016-Aug-01 07:33N 29°53' W 092°23'4 2.2
2016-Aug-01 05:33N 29°50' W 092°19'1 1.3
2016-Aug-01 04:33N 29°50' W 092°18'1 1.2
2016-Aug-01 03:33N 29°49' W 092°17'3 2.7
2016-Aug-01 02:33N 29°48' W 092°14'1 1.5
2016-Aug-01 01:33N 29°47' W 092°12'3 2.9
2016-Aug-01 00:33N 29°47' W 092°09'3 3.5
2016-Jul-31 23:33N 29°48' W 092°05'3 3.1
2016-Jul-31 22:33N 29°49' W 092°02'3 3.3
2016-Jul-31 21:33N 29°50' W 091°58'62 3.0
2016-Jul-31 00:33N 29°32' W 090°50'5 2.7
2016-Jul-30 22:33N 29°34' W 090°44'2 2.2
2016-Jul-30 21:33N 29°36' W 090°43'2 1.7
2016-Jul-30 20:33N 29°36' W 090°41'3 2.7
2016-Jul-30 19:33N 29°35' W 090°38'3 2.8
2016-Jul-30 18:33N 29°34' W 090°35'3 3.0
2016-Jul-30 17:26N 29°34' W 090°31'27 2.5
2016-Jul-30 06:33N 29°48' W 090°04'2 2.5
2016-Jul-30 05:33N 29°50' W 090°03'3 2.6
2016-Jul-30 04:33N 29°52' W 090°01'3 2.7
2016-Jul-30 03:33N 29°54' W 089°60'1 1.5
2016-Jul-30 02:33N 29°55' W 089°58'0 0.4
2016-Jul-30 01:33N 29°55' W 089°58'0 0.0
2016-Jul-30 00:33N 29°55' W 089°58'0 0.0
2016-Jul-29 23:32N 29°55' W 089°58'2 2.3
2016-Jul-29 22:33N 29°57' W 090°00'4 3.9
2016-Jul-29 21:33N 29°55' W 090°04'4 4.3
2016-Jul-29 20:30N 29°57' W 090°09'1 0.7
2016-Jul-29 18:24N 29°56' W 090°10'0 0.0
2016-Jul-29 13:24N 29°56' W 090°10'0 0.0
2016-Jul-29 12:18N 29°56' W 090°10'0 0.0
2016-Jul-29 04:31N 29°56' W 090°10'2 1.6
2016-Jul-29 03:33N 29°56' W 090°08'3 3.2
2016-Jul-29 02:33N 29°55' W 090°05'3 3.4
2016-Jul-29 01:33N 29°57' W 090°02'3 3.5
2016-Jul-29 00:33N 29°55' W 089°59'1 0.7
2016-Jul-28 23:33N 29°55' W 089°59'0 0.4
2016-Jul-28 22:33N 29°55' W 089°59'0 0.0
2016-Jul-28 21:33N 29°55' W 089°59'4 3.2
2016-Jul-28 20:22N 29°51' W 090°01'2 2.3
2016-Jul-28 19:32N 29°50' W 090°03'0 0.1
2016-Jul-28 17:30N 29°50' W 090°03'0 0.0
2016-Jul-28 15:09N 29°50' W 090°03'2 1.8
2016-Jul-28 14:17N 29°49' W 090°04'27 3.9
2016-Jul-28 07:24N 29°34' W 090°29'4 4.2
2016-Jul-28 06:33N 29°34' W 090°33'4 3.6
2016-Jul-28 05:33N 29°35' W 090°37'4 4.2
2016-Jul-28 04:33N 29°37' W 090°42'3 3.3
2016-Jul-28 03:33N 29°34' W 090°44'4 3.9
2016-Jul-28 02:33N 29°32' W 090°48'  
Track history (hours):
 
Tides and Currents Weather Stations Pressure Air Temp Water Temp Dewpoint Dewpoint Depression Visibility Wind Speed Wind Dir Waves Ship Positions

Lady Lauren

Owner: Louisiana Marine Towing LLC, Lafayette, LA. More information available from US FCC via Universal Licensing System and Coast Guard Vessel Documentation Center.

Last reported at 2016-Aug-06 03:33 UTC. Time now 2016-Aug-25 07:58 UTC.
Position N 29°33' W 090°25'.
Warning: this ship's position is 19 days out of date.

Length 22 m; draft 2.1 m.

Type: Towing. MMSI: 367397380.

Date/timePositionNaut miles runAvg speedWind from/ knotsBaromVisibWave heightAir tempDewpointWater temp
2016-Aug-06 03:33N 29°33' W 090°25'1 1.4
2016-Aug-06 02:30N 29°33' W 090°27'5 4.9
2016-Aug-06 01:33N 29°34' W 090°32'10 3.5
2016-Aug-05 22:33N 29°34' W 090°44'1 0.6
2016-Aug-05 20:33N 29°33' W 090°45'4 4.1
2016-Aug-05 19:32N 29°32' W 090°50'61 3.4
2016-Aug-05 01:28N 29°51' W 091°56'4 4.8
2016-Aug-05 00:33N 29°49' W 092°01'4 4.3
2016-Aug-04 23:33N 29°48' W 092°06'1 0.6
2016-Aug-04 22:33N 29°48' W 092°06'5 4.5
2016-Aug-04 21:33N 29°47' W 092°11'2 2.0
2016-Aug-04 20:33N 29°48' W 092°13'0 0.3
2016-Aug-04 19:33N 29°48' W 092°14'4 3.6
2016-Aug-04 18:33N 29°49' W 092°17'2 1.6
2016-Aug-04 17:33N 29°50' W 092°19'5 4.9
2016-Aug-04 16:33N 29°53' W 092°24'16 5.4
2016-Aug-04 13:33N 29°57' W 092°42'12 3.7
2016-Aug-04 10:21N 29°56' W 092°56'5 4.5
2016-Aug-04 09:14N 29°56' W 093°01'3 4.8
2016-Aug-04 08:33N 29°56' W 093°05'5 4.5
2016-Aug-04 07:32N 29°57' W 093°10'4 3.6
2016-Aug-04 06:33N 29°60' W 093°13'7 3.7
2016-Aug-04 04:33N 30°05' W 093°18'1 0.6
2016-Aug-04 03:33N 30°06' W 093°18'0 0.0
2016-Aug-04 02:33N 30°06' W 093°18'0 0.0
2016-Aug-04 01:33N 30°06' W 093°18'3 2.6
2016-Aug-04 00:33N 30°08' W 093°20'4 4.5
2016-Aug-03 23:33N 30°12' W 093°17'3 2.7
2016-Aug-03 22:33N 30°14' W 093°15'0 0.0
2016-Aug-03 21:33N 30°14' W 093°15'0 0.1
2016-Aug-03 20:33N 30°14' W 093°15'0 0.0
2016-Aug-03 19:33N 30°14' W 093°15'0 0.0
2016-Aug-03 18:32N 30°14' W 093°15'0 0.0
2016-Aug-03 17:33N 30°14' W 093°15'0 0.0
2016-Aug-03 16:33N 30°14' W 093°15'0 0.0
2016-Aug-03 15:33N 30°14' W 093°15'0 0.0
2016-Aug-03 14:33N 30°14' W 093°15'0 0.0
2016-Aug-03 13:33N 30°14' W 093°15'0 0.0
2016-Aug-03 12:33N 30°14' W 093°15'0 0.0
2016-Aug-03 11:33N 30°14' W 093°15'0 0.0
2016-Aug-03 10:33N 30°14' W 093°15'0 0.0
2016-Aug-03 09:31N 30°14' W 093°15'0 0.0
2016-Aug-03 08:33N 30°14' W 093°15'0 0.0
2016-Aug-03 07:33N 30°14' W 093°15'0 0.0
2016-Aug-03 06:32N 30°14' W 093°15'0 0.0
2016-Aug-03 04:33N 30°14' W 093°15'0 0.0
2016-Aug-03 03:33N 30°14' W 093°15'0 0.1
2016-Aug-03 02:06N 30°14' W 093°15'0 0.0
2016-Aug-03 01:33N 30°14' W 093°15'0 0.0
2016-Aug-03 00:33N 30°14' W 093°15'0 0.1
2016-Aug-02 23:33N 30°14' W 093°15'0 0.1
2016-Aug-02 22:33N 30°14' W 093°15'0 0.2
2016-Aug-02 21:33N 30°14' W 093°15'0 0.0
2016-Aug-02 20:33N 30°14' W 093°15'0 0.0
2016-Aug-02 19:33N 30°14' W 093°15'0 0.0
2016-Aug-02 18:33N 30°14' W 093°15'0 0.1
2016-Aug-02 17:33N 30°14' W 093°15'0 0.2
2016-Aug-02 16:33N 30°14' W 093°15'2 1.6
2016-Aug-02 15:33N 30°12' W 093°16'4 3.8
2016-Aug-02 14:33N 30°10' W 093°19'4 3.6
2016-Aug-02 13:33N 30°06' W 093°20'2 2.2
2016-Aug-02 12:33N 30°05' W 093°18'1 0.9
2016-Aug-02 11:33N 30°05' W 093°17'0 0.1
2016-Aug-02 10:33N 30°05' W 093°17'0 0.0
2016-Aug-02 09:33N 30°05' W 093°17'0 0.0
2016-Aug-02 08:33N 30°05' W 093°17'0 0.0
2016-Aug-02 07:33N 30°05' W 093°17'0 0.0
2016-Aug-02 06:32N 30°05' W 093°17'0 0.0
2016-Aug-02 04:33N 30°05' W 093°17'0 0.0
2016-Aug-02 03:33N 30°05' W 093°17'0 0.0
2016-Aug-02 02:33N 30°05' W 093°17'0 0.1
2016-Aug-02 01:33N 30°05' W 093°17'0 0.3
2016-Aug-02 00:30N 30°05' W 093°17'2 2.4
2016-Aug-01 23:33N 30°02' W 093°16'3 3.0
2016-Aug-01 22:33N 30°00' W 093°13'4 3.5
2016-Aug-01 21:33N 29°57' W 093°11'3 3.0
2016-Aug-01 20:33N 29°56' W 093°08'2 2.5
2016-Aug-01 19:34N 29°56' W 093°05'29 3.2
2016-Aug-01 10:28N 29°54' W 092°31'3 2.5
2016-Aug-01 09:22N 29°54' W 092°28'2 2.5
2016-Aug-01 08:33N 29°53' W 092°26'2 2.4
2016-Aug-01 07:33N 29°53' W 092°23'4 2.2
2016-Aug-01 05:33N 29°50' W 092°19'1 1.3
2016-Aug-01 04:33N 29°50' W 092°18'1 1.2
2016-Aug-01 03:33N 29°49' W 092°17'3 2.7
2016-Aug-01 02:33N 29°48' W 092°14'1 1.5
2016-Aug-01 01:33N 29°47' W 092°12'3 2.9
2016-Aug-01 00:33N 29°47' W 092°09'3 3.5
2016-Jul-31 23:33N 29°48' W 092°05'3 3.1
2016-Jul-31 22:33N 29°49' W 092°02'3 3.3
2016-Jul-31 21:33N 29°50' W 091°58'62 3.0
2016-Jul-31 00:33N 29°32' W 090°50'5 2.7
2016-Jul-30 22:33N 29°34' W 090°44'2 2.2
2016-Jul-30 21:33N 29°36' W 090°43'2 1.7
2016-Jul-30 20:33N 29°36' W 090°41'3 2.7
2016-Jul-30 19:33N 29°35' W 090°38'3 2.8
2016-Jul-30 18:33N 29°34' W 090°35'3 3.0
2016-Jul-30 17:26N 29°34' W 090°31'27 2.5
2016-Jul-30 06:33N 29°48' W 090°04'2 2.5
2016-Jul-30 05:33N 29°50' W 090°03'3 2.6
2016-Jul-30 04:33N 29°52' W 090°01'3 2.7
2016-Jul-30 03:33N 29°54' W 089°60'1 1.5
2016-Jul-30 02:33N 29°55' W 089°58'0 0.4
2016-Jul-30 01:33N 29°55' W 089°58'0 0.0
2016-Jul-30 00:33N 29°55' W 089°58'0 0.0
2016-Jul-29 23:32N 29°55' W 089°58'2 2.3
2016-Jul-29 22:33N 29°57' W 090°00'4 3.9
2016-Jul-29 21:33N 29°55' W 090°04'4 4.3
2016-Jul-29 20:30N 29°57' W 090°09'1 0.7
2016-Jul-29 18:24N 29°56' W 090°10'0 0.0
2016-Jul-29 13:24N 29°56' W 090°10'0 0.0
2016-Jul-29 12:18N 29°56' W 090°10'0 0.0
2016-Jul-29 04:31N 29°56' W 090°10'2 1.6
2016-Jul-29 03:33N 29°56' W 090°08'3 3.2
2016-Jul-29 02:33N 29°55' W 090°05'3 3.4
2016-Jul-29 01:33N 29°57' W 090°02'3 3.5
2016-Jul-29 00:33N 29°55' W 089°59'1 0.7
2016-Jul-28 23:33N 29°55' W 089°59'0 0.4
2016-Jul-28 22:33N 29°55' W 089°59'0 0.0
2016-Jul-28 21:33N 29°55' W 089°59'4 3.2
2016-Jul-28 20:22N 29°51' W 090°01'2 2.3
2016-Jul-28 19:32N 29°50' W 090°03'0 0.1
2016-Jul-28 17:30N 29°50' W 090°03'0 0.0
2016-Jul-28 15:09N 29°50' W 090°03'2 1.8
2016-Jul-28 14:17N 29°49' W 090°04'27 3.9
2016-Jul-28 07:24N 29°34' W 090°29'4 4.2
2016-Jul-28 06:33N 29°34' W 090°33'4 3.6
2016-Jul-28 05:33N 29°35' W 090°37'4 4.2
2016-Jul-28 04:33N 29°37' W 090°42'3 3.3
2016-Jul-28 03:33N 29°34' W 090°44'4 3.9
2016-Jul-28 02:33N 29°32' W 090°48'  

Dump ship's entire track history